Time;durP1;ratioP1;P1;durP2;ratioP2;P2;SDS_P1;SDS_P2;PMS_P1;PMS_P2;Temp;Humidity;BMP_temperature;BMP_pressure;BME280_temperature;BME280_humidity;BME280_pressure;Samples;Min_cycle;Max_cycle;Signal;HPM_P1;HPM_P2
2023/01/19 00:00:10;;;;;;;19.80;7.40;;;;;;;-145.69;100.00;52693.94;5075024;28;20198;-80
2023/01/19 00:02:37;;;;;;;20.83;7.80;;;;;;;-145.69;100.00;52713.72;5074421;28;20256;-79
2023/01/19 00:05:05;;;;;;;18.87;7.97;;;;;;;-145.69;100.00;52715.72;5073873;28;20244;-80
2023/01/19 00:07:31;;;;;;;22.70;8.30;;;;;;;-145.69;100.00;52682.03;5075008;28;20202;-80
2023/01/19 00:09:58;;;;;;;23.30;7.73;;;;;;;-145.69;100.00;52713.72;5075138;28;20202;-79
2023/01/19 00:12:25;;;;;;;23.30;8.00;;;;;;;-145.69;100.00;52721.66;5074610;28;20199;-80
2023/01/19 00:14:52;;;;;;;22.47;7.47;;;;;;;-145.69;100.00;52705.81;5074968;28;20207;-80
2023/01/19 00:17:19;;;;;;;17.87;7.70;;;;;;;-145.69;100.00;52717.69;5074589;28;20198;-79
2023/01/19 00:19:46;;;;;;;24.57;7.20;;;;;;;-145.69;100.00;52735.50;5074218;28;20203;-79
2023/01/19 00:22:12;;;;;;;19.00;7.87;;;;;;;-145.69;100.00;52749.38;5074550;28;20206;-80
2023/01/19 00:24:39;;;;;;;17.40;7.73;;;;;;;-145.69;100.00;52670.16;5074621;28;20680;-80
2023/01/19 00:27:05;;;;;;;19.10;8.17;;;;;;;-145.69;100.00;52697.88;5074699;28;20612;-80
2023/01/19 00:29:34;;;;;;;19.57;6.70;;;;;;;-145.69;100.00;52697.88;5074407;28;20585;-80
2023/01/19 00:32:01;;;;;;;15.90;6.50;;;;;;;-145.69;100.00;52703.81;5073542;28;20211;-79
2023/01/19 00:34:35;;;;;;;17.00;7.33;;;;;;;-145.69;100.00;52737.50;5074085;28;20206;-80
2023/01/19 00:37:02;;;;;;;18.63;6.97;;;;;;;-145.69;100.00;52697.88;5073311;28;20221;-80
2023/01/19 00:39:28;;;;;;;22.90;7.50;;;;;;;-145.69;100.00;52705.81;5074361;28;20234;-79
2023/01/19 00:44:39;;;;;;;18.87;7.87;;;;;;;-145.69;100.00;52719.66;5074178;28;20238;-80
2023/01/19 00:47:06;;;;;;;18.57;7.07;;;;;;;-145.69;100.00;52737.50;5074237;28;20621;-80
2023/01/19 00:49:34;;;;;;;17.43;7.50;;;;;;;-145.69;100.00;52721.66;5073884;28;20206;-80
2023/01/19 00:52:00;;;;;;;13.93;6.53;;;;;;;-145.69;100.00;52713.72;5074230;28;20221;-79
2023/01/19 00:54:26;;;;;;;13.77;6.53;;;;;;;-145.69;100.00;52721.66;5074208;28;20214;-80
2023/01/19 00:56:53;;;;;;;19.40;6.60;;;;;;;-145.69;100.00;52691.94;5073747;28;20209;-80
2023/01/19 00:59:19;;;;;;;15.47;6.37;;;;;;;-145.69;100.00;52703.81;5073937;28;20222;-79
2023/01/19 01:01:46;;;;;;;19.43;5.93;;;;;;;-145.69;100.00;52733.53;5074092;28;20214;-80
2023/01/19 01:04:13;;;;;;;17.30;5.60;;;;;;;-145.69;100.00;52747.41;5073776;28;20207;-79
2023/01/19 01:06:40;;;;;;;13.33;6.33;;;;;;;-145.69;100.00;52721.66;5073749;28;20206;-80
2023/01/19 01:09:10;;;;;;;19.73;7.17;;;;;;;-145.69;100.00;52687.97;5073589;28;20207;-80
2023/01/19 01:11:37;;;;;;;14.47;6.03;;;;;;;-145.69;100.00;52723.63;5073627;28;20203;-79
2023/01/19 01:14:03;;;;;;;17.10;6.43;;;;;;;-145.69;100.00;52707.78;5073421;28;20653;-80
2023/01/19 01:16:30;;;;;;;13.23;6.10;;;;;;;-145.69;100.00;52705.81;5073898;28;20199;-79
2023/01/19 01:18:56;;;;;;;18.90;5.80;;;;;;;-145.69;100.00;52725.63;5073563;28;20233;-79
2023/01/19 01:21:23;;;;;;;10.33;5.47;;;;;;;-145.69;100.00;52705.81;5073589;28;20198;-79
2023/01/19 01:23:51;;;;;;;16.53;5.87;;;;;;;-145.69;100.00;52733.53;5073517;28;20260;-80
2023/01/19 01:26:17;;;;;;;17.63;5.93;;;;;;;-145.69;100.00;52709.78;5073363;28;20206;-80
2023/01/19 01:28:44;;;;;;;14.70;6.53;;;;;;;-145.69;100.00;52729.56;5073286;28;20202;-79
2023/01/19 01:31:10;;;;;;;19.23;6.37;;;;;;;-145.69;100.00;52733.53;5073228;28;20662;-79
2023/01/19 01:33:37;;;;;;;14.40;6.33;;;;;;;-145.69;100.00;52684.03;5073402;28;20210;-79
2023/01/19 01:36:04;;;;;;;14.43;5.70;;;;;;;-145.69;100.00;52686.00;5073400;28;20658;-79
2023/01/19 01:38:30;;;;;;;18.83;6.00;;;;;;;-145.69;100.00;52729.56;5072945;28;20230;-79
2023/01/19 01:40:58;;;;;;;19.17;6.13;;;;;;;-145.69;100.00;52709.78;5073217;28;20206;-79
2023/01/19 01:43:43;;;;;;;14.57;6.37;;;;;;;-145.69;100.00;52717.69;5073100;28;20234;-78
2023/01/19 01:46:09;;;;;;;17.20;6.30;;;;;;;-145.69;100.00;52725.63;5073301;28;20229;-79
2023/01/19 01:48:38;;;;;;;15.47;5.20;;;;;;;-145.69;100.00;52713.72;5071944;28;20271;-79
2023/01/19 01:51:25;;;;;;;19.67;6.00;;;;;;;-145.69;100.00;52705.81;5072949;28;20203;-80
2023/01/19 01:54:01;;;;;;;17.03;5.90;;;;;;;-145.69;100.00;52658.28;5073246;28;20648;-79
2023/01/19 01:56:34;;;;;;;14.97;6.23;;;;;;;-145.69;100.00;52686.00;5072963;28;20542;-79
2023/01/19 01:59:04;;;;;;;14.53;5.13;;;;;;;-145.69;100.00;52753.34;5072638;28;20222;-79
2023/01/19 02:04:15;;;;;;;13.90;5.47;;;;;;;-145.69;100.00;52727.59;5073036;28;20255;-80
2023/01/19 02:14:58;;;;;;;14.43;5.97;;;;;;;-145.69;100.00;52717.69;5072920;28;20201;-79
2023/01/19 02:17:25;;;;;;;18.65;7.38;;;;;;;-145.69;100.00;52711.75;5072564;28;20785;-80
2023/01/19 02:19:51;;;;;;;20.00;6.63;;;;;;;-145.69;100.00;52715.72;5072829;28;20234;-80
2023/01/19 02:22:24;;;;;;;14.43;5.93;;;;;;;-145.69;100.00;52711.75;5072773;28;20286;-79
2023/01/19 02:24:53;;;;;;;14.37;5.63;;;;;;;-145.69;100.00;52719.66;5072687;28;20199;-79
2023/01/19 02:27:20;;;;;;;22.37;6.33;;;;;;;-145.69;100.00;52751.34;5072340;28;20228;-79
2023/01/19 02:29:47;;;;;;;14.60;5.47;;;;;;;-145.69;100.00;52709.78;5072371;28;20202;-79
2023/01/19 02:32:14;;;;;;;16.93;6.00;;;;;;;-145.69;100.00;52729.56;5072635;28;20202;-79
2023/01/19 02:34:40;;;;;;;16.33;6.07;;;;;;;-145.69;100.00;52697.88;5072328;28;20205;-78
2023/01/19 02:37:11;;;;;;;15.57;6.10;;;;;;;-145.69;100.00;52717.69;5072307;28;20202;-79
2023/01/19 02:39:44;;;;;;;14.47;6.03;;;;;;;-145.69;100.00;52682.03;5072337;28;20226;-78
2023/01/19 02:42:16;;;;;;;13.37;5.33;;;;;;;-145.69;100.00;52717.69;5071562;28;20661;-79
2023/01/19 02:44:47;;;;;;;12.73;5.40;;;;;;;-145.69;100.00;52701.84;5071779;28;20724;-78
2023/01/19 02:47:14;;;;;;;13.13;5.77;;;;;;;-145.69;100.00;52709.78;5072653;28;20202;-79
2023/01/19 02:49:40;;;;;;;14.67;6.50;;;;;;;-145.69;100.00;52733.53;5072437;28;20210;-79
2023/01/19 02:52:14;;;;;;;14.57;5.57;;;;;;;-145.69;100.00;52723.63;5072634;28;20199;-79
2023/01/19 02:54:50;;;;;;;10.80;5.43;;;;;;;-145.69;100.00;52721.66;5073149;28;20195;-80
2023/01/19 02:57:54;;;;;;;18.40;6.33;;;;;;;-145.69;100.00;52731.56;5075921;28;20569;-79
2023/01/19 03:00:32;;;;;;;14.13;4.97;;;;;;;-145.69;100.00;52717.69;5014364;28;20228;-79
2023/01/19 03:03:15;;;;;;;13.50;5.93;;;;;;;-145.69;100.00;52721.66;5069303;28;20226;-78
2023/01/19 03:05:55;;;;;;;14.27;5.77;;;;;;;-145.69;100.00;52725.63;5076339;28;20221;-80
2023/01/19 03:08:32;;;;;;;17.60;5.80;;;;;;;-145.69;100.00;52727.59;5075196;28;20565;-79
2023/01/19 03:11:02;;;;;;;17.47;5.47;;;;;;;-145.69;100.00;52686.00;5075891;28;20290;-79
2023/01/19 03:13:39;;;;;;;12.17;6.03;;;;;;;-145.69;100.00;52749.38;5075205;28;20187;-79
2023/01/19 03:16:11;;;;;;;13.37;6.47;;;;;;;-145.69;100.00;52729.56;5075594;28;20289;-79
2023/01/19 03:18:41;;;;;;;14.17;6.07;;;;;;;-145.69;100.00;52717.69;5075701;28;20276;-79
2023/01/19 03:21:10;;;;;;;13.17;5.10;;;;;;;-145.69;100.00;52749.38;5075652;28;20561;-80
2023/01/19 03:23:40;;;;;;;17.43;5.90;;;;;;;-145.69;100.00;52741.47;5075743;28;20199;-79
2023/01/19 03:26:10;;;;;;;14.17;5.00;;;;;;;-145.69;100.00;52703.81;5075566;28;20213;-79
2023/01/19 03:28:41;;;;;;;9.33;4.77;;;;;;;-145.69;100.00;52703.81;5075663;28;20205;-79
2023/01/19 03:31:12;;;;;;;17.30;5.30;;;;;;;-145.69;100.00;52713.72;5075691;28;20198;-79
2023/01/19 03:33:43;;;;;;;13.40;4.90;;;;;;;-145.69;100.00;52715.72;5075657;28;20202;-78
2023/01/19 03:36:15;;;;;;;10.73;4.97;;;;;;;-145.69;100.00;52693.94;5076064;28;20198;-78
2023/01/19 03:38:43;;;;;;;13.03;6.07;;;;;;;-145.69;100.00;52725.63;5075312;28;20233;-78
2023/01/19 03:41:11;;;;;;;15.90;5.93;;;;;;;-145.69;100.00;52709.78;5075041;28;20202;-79
2023/01/19 03:43:40;;;;;;;17.97;6.47;;;;;;;-145.69;100.00;52719.66;5074563;28;20728;-79
2023/01/19 03:46:09;;;;;;;25.50;7.07;;;;;;;-145.69;100.00;52691.94;5075429;28;20648;-78
2023/01/19 03:48:37;;;;;;;17.93;6.90;;;;;;;-145.69;100.00;52703.81;5075507;28;20230;-79
2023/01/19 03:51:06;;;;;;;20.93;5.43;;;;;;;-145.69;100.00;52703.81;5075203;28;20203;-79
2023/01/19 03:53:33;;;;;;;14.20;5.73;;;;;;;-145.69;100.00;52670.16;5075364;28;20211;-79
2023/01/19 03:55:59;;;;;;;20.50;5.97;;;;;;;-145.69;100.00;52689.97;5075125;28;20207;-79
2023/01/19 03:58:27;;;;;;;13.63;5.53;;;;;;;-145.69;100.00;52699.88;5074643;28;20657;-78
2023/01/19 04:00:54;;;;;;;14.20;5.20;;;;;;;-145.69;100.00;52705.81;5075062;28;20657;-79
2023/01/19 04:03:21;;;;;;;13.00;5.07;;;;;;;-145.69;100.00;52713.72;5075130;28;20199;-79
2023/01/19 04:05:48;;;;;;;10.70;4.73;;;;;;;-145.69;100.00;52727.59;5074805;28;20199;-79
2023/01/19 04:08:14;;;;;;;15.63;5.40;;;;;;;-145.69;100.00;52705.81;5070126;28;20207;-79
2023/01/19 04:10:41;;;;;;;11.77;5.33;;;;;;;-145.69;100.00;52737.50;5074443;28;20570;-79
2023/01/19 04:13:07;;;;;;;11.73;5.03;;;;;;;-145.69;100.00;52717.69;5074665;28;20205;-79
2023/01/19 04:15:34;;;;;;;14.40;5.20;;;;;;;-145.69;100.00;52729.56;5074943;28;20198;-78
2023/01/19 04:18:02;;;;;;;13.67;5.73;;;;;;;-145.69;100.00;52719.66;5074345;28;20203;-78
2023/01/19 04:20:29;;;;;;;12.30;4.13;;;;;;;-145.69;100.00;52705.81;5074619;28;20229;-79
2023/01/19 04:22:59;;;;;;;15.47;4.60;;;;;;;-145.69;100.00;52737.50;5074616;28;20209;-79
2023/01/19 04:25:25;;;;;;;8.83;3.93;;;;;;;-145.69;100.00;52735.50;5074626;28;20209;-79
2023/01/19 04:27:53;;;;;;;11.67;4.60;;;;;;;-145.69;100.00;52697.88;5073719;28;20202;-79
2023/01/19 04:30:21;;;;;;;14.40;5.07;;;;;;;-145.69;100.00;52749.38;5074654;28;20206;-79
2023/01/19 04:32:48;;;;;;;15.77;5.23;;;;;;;-145.69;100.00;52729.56;5074526;28;20297;-80
2023/01/19 04:35:16;;;;;;;11.17;4.50;;;;;;;-145.69;100.00;52715.72;5074526;28;20195;-79
2023/01/19 04:37:43;;;;;;;12.77;4.37;;;;;;;-145.69;100.00;52735.50;5073997;28;20203;-79
2023/01/19 04:40:14;;;;;;;11.23;5.27;;;;;;;-145.69;100.00;52737.50;5074086;28;20222;-78
2023/01/19 04:42:43;;;;;;;15.80;5.30;;;;;;;-145.69;100.00;52711.75;5073977;28;20286;-79
2023/01/19 04:45:11;;;;;;;9.70;4.20;;;;;;;-145.69;100.00;52733.53;5073549;28;20238;-78
2023/01/19 04:47:37;;;;;;;9.57;4.57;;;;;;;-145.69;100.00;52713.72;5074067;28;20198;-78
2023/01/19 04:50:05;;;;;;;11.23;4.63;;;;;;;-145.69;100.00;52729.56;5074389;28;20203;-78
2023/01/19 04:52:34;;;;;;;9.60;4.47;;;;;;;-145.69;100.00;52727.59;5074121;28;20546;-78
2023/01/19 04:55:02;;;;;;;13.00;4.30;;;;;;;-145.69;100.00;52719.66;5073446;28;20199;-79
2023/01/19 04:57:29;;;;;;;11.70;5.13;;;;;;;-145.69;100.00;52733.53;5074015;28;20210;-79
2023/01/19 04:59:56;;;;;;;17.70;5.40;;;;;;;-145.69;100.00;52705.81;5074109;28;20585;-79
2023/01/19 05:02:23;;;;;;;10.37;4.50;;;;;;;-145.69;100.00;52725.63;5073648;28;20696;-79
2023/01/19 05:04:49;;;;;;;12.83;4.67;;;;;;;-145.69;100.00;52701.84;5073715;28;20210;-80
2023/01/19 05:07:16;;;;;;;9.67;4.47;;;;;;;-145.69;100.00;52686.00;5073859;28;20561;-79
2023/01/19 05:09:44;;;;;;;10.03;3.97;;;;;;;-145.69;100.00;52715.72;5073385;28;20202;-79
2023/01/19 05:12:11;;;;;;;9.30;4.33;;;;;;;-145.69;100.00;52741.47;5072877;28;20187;-80
2023/01/19 05:14:37;;;;;;;13.07;3.90;;;;;;;-145.69;100.00;52751.34;5073481;28;20253;-79
2023/01/19 05:17:04;;;;;;;8.60;3.90;;;;;;;-145.69;100.00;52689.97;5073631;28;20233;-79
2023/01/19 05:19:31;;;;;;;9.43;4.80;;;;;;;-145.69;100.00;52723.63;5073042;28;20315;-80
2023/01/19 05:21:57;;;;;;;9.30;4.17;;;;;;;-145.69;100.00;52717.69;5073578;28;20209;-79
2023/01/19 05:24:24;;;;;;;7.13;3.70;;;;;;;-145.69;100.00;52729.56;5073406;28;20203;-79
2023/01/19 05:26:51;;;;;;;7.10;3.90;;;;;;;-145.69;100.00;52713.72;5073253;28;20543;-79
2023/01/19 05:29:18;;;;;;;8.70;4.10;;;;;;;-145.69;100.00;52741.47;5073643;28;20213;-79
2023/01/19 05:31:44;;;;;;;9.60;4.57;;;;;;;-145.69;100.00;52709.78;5073322;28;20834;-79
2023/01/19 05:34:11;;;;;;;10.03;4.10;;;;;;;-145.69;100.00;52723.63;5073223;28;20209;-79
2023/01/19 05:36:38;;;;;;;11.23;4.57;;;;;;;-145.69;100.00;52701.84;5072754;28;20784;-79
2023/01/19 05:39:04;;;;;;;9.63;4.53;;;;;;;-145.69;100.00;52753.34;5072842;28;20199;-79
2023/01/19 05:41:31;;;;;;;8.47;4.10;;;;;;;-145.69;100.00;52713.72;5072698;28;20191;-79
2023/01/19 05:43:59;;;;;;;6.97;3.77;;;;;;;-145.69;100.00;52705.81;5072910;28;20227;-79
2023/01/19 05:46:25;;;;;;;13.93;4.80;;;;;;;-145.69;100.00;52723.63;5073170;28;20260;-79
2023/01/19 05:48:52;;;;;;;12.73;4.57;;;;;;;-145.69;100.00;52701.84;5072976;28;20205;-79
2023/01/19 05:51:18;;;;;;;10.87;4.27;;;;;;;-145.69;100.00;52723.63;5073379;28;20211;-79
2023/01/19 05:53:45;;;;;;;10.20;4.30;;;;;;;-145.69;100.00;52737.50;5072731;28;20624;-79
2023/01/19 05:56:12;;;;;;;9.70;4.20;;;;;;;-145.69;100.00;52719.66;5072837;28;20195;-79
2023/01/19 05:58:39;;;;;;;9.60;4.10;;;;;;;-145.69;100.00;52709.78;5073069;28;20201;-79
2023/01/19 06:01:08;;;;;;;7.50;3.83;;;;;;;-145.69;100.00;52705.81;5072802;28;20230;-80
2023/01/19 06:03:38;;;;;;;10.87;4.07;;;;;;;-145.69;100.00;52705.81;5072914;28;20198;-78
2023/01/19 06:06:04;;;;;;;8.27;4.00;;;;;;;-145.69;100.00;52729.56;5071851;28;20736;-78
2023/01/19 06:08:31;;;;;;;9.90;4.40;;;;;;;-145.69;100.00;52717.69;5070404;28;20202;-78
2023/01/19 06:10:57;;;;;;;9.47;3.23;;;;;;;-145.69;100.00;52739.47;5072340;28;20680;-78
2023/01/19 06:13:24;;;;;;;9.40;3.53;;;;;;;-145.69;100.00;52727.59;5072505;28;20203;-77
2023/01/19 06:15:56;;;;;;;14.43;3.70;;;;;;;-145.69;100.00;52725.63;5072715;28;20206;-78
2023/01/19 06:18:24;;;;;;;7.27;3.27;;;;;;;-145.69;100.00;52727.59;5073041;28;20206;-80
2023/01/19 06:20:51;;;;;;;6.50;2.80;;;;;;;-145.69;100.00;52693.94;5072596;28;20237;-79
2023/01/19 06:23:19;;;;;;;7.90;3.33;;;;;;;-145.69;100.00;52745.41;5072871;28;20569;-79
2023/01/19 06:25:46;;;;;;;9.43;3.50;;;;;;;-145.69;100.00;52709.78;5071898;28;20565;-79
2023/01/19 06:28:12;;;;;;;8.93;4.00;;;;;;;-145.69;100.00;52713.72;5072462;28;20672;-79
2023/01/19 06:30:39;;;;;;;8.27;3.43;;;;;;;-145.69;100.00;52761.25;5074666;28;20736;-79
2023/01/19 06:33:05;;;;;;;6.70;3.50;;;;;;;-145.69;100.00;52711.75;5076918;28;20202;-78
2023/01/19 06:35:34;;;;;;;9.77;3.97;;;;;;;-145.69;100.00;52707.78;5076848;28;20704;-78
2023/01/19 06:38:01;;;;;;;7.43;3.53;;;;;;;-145.69;100.00;52697.88;5076466;28;20199;-79
2023/01/19 06:40:27;;;;;;;10.43;3.80;;;;;;;-145.69;100.00;52707.78;5076535;28;20227;-79
2023/01/19 06:42:56;;;;;;;11.87;3.30;;;;;;;-145.69;100.00;52711.75;5075743;28;20202;-78
2023/01/19 06:45:22;;;;;;;8.50;3.50;;;;;;;-145.69;100.00;52713.72;5076511;28;20582;-78
2023/01/19 06:47:49;;;;;;;9.03;3.77;;;;;;;-145.69;100.00;52751.34;5076587;28;20205;-77
2023/01/19 06:50:16;;;;;;;10.93;4.10;;;;;;;-145.69;100.00;52735.50;5076583;28;20195;-80
2023/01/19 06:52:44;;;;;;;7.53;3.47;;;;;;;-145.69;100.00;52717.69;5075983;28;20237;-77
2023/01/19 06:55:12;;;;;;;10.87;4.13;;;;;;;-145.69;100.00;52709.78;5076433;28;20230;-78
2023/01/19 06:57:39;;;;;;;11.23;4.00;;;;;;;-145.69;100.00;52723.63;5076390;28;20203;-77
2023/01/19 07:00:08;;;;;;;14.83;4.67;;;;;;;-145.69;100.00;52715.72;5076132;28;20230;-78
2023/01/19 07:02:34;;;;;;;9.63;4.37;;;;;;;-145.69;100.00;52747.41;5076313;28;20214;-78
2023/01/19 07:05:01;;;;;;;9.70;3.87;;;;;;;-145.69;100.00;52717.69;5076113;28;20201;-79
2023/01/19 07:07:28;;;;;;;11.13;3.77;;;;;;;-145.69;100.00;52745.41;5075920;28;20195;-79
2023/01/19 07:09:55;;;;;;;10.40;4.03;;;;;;;-145.69;100.00;52757.31;5075423;28;20202;-78
2023/01/19 07:12:22;;;;;;;8.50;3.90;;;;;;;-145.69;100.00;52743.44;5074511;28;20672;-78
2023/01/19 07:14:49;;;;;;;8.20;3.87;;;;;;;-145.69;100.00;52753.34;5076217;28;20195;-78
2023/01/19 07:17:16;;;;;;;10.27;4.20;;;;;;;-145.69;100.00;52749.38;5075332;28;20684;-77
2023/01/19 07:19:42;;;;;;;8.57;3.30;;;;;;;-145.69;100.00;52729.56;5075837;28;20310;-77
2023/01/19 07:22:09;;;;;;;9.77;3.53;;;;;;;-145.69;100.00;52747.41;5075480;28;20202;-77
2023/01/19 07:24:36;;;;;;;9.07;4.00;;;;;;;-145.69;100.00;52749.38;5075643;28;20285;-76
2023/01/19 07:27:04;;;;;;;13.00;4.07;;;;;;;-145.69;100.00;52771.16;5075638;28;20658;-77
2023/01/19 07:29:31;;;;;;;8.70;3.37;;;;;;;-145.69;100.00;52709.78;5075695;28;20205;-77
2023/01/19 07:31:57;;;;;;;8.97;3.10;;;;;;;-145.69;100.00;52721.66;5075391;28;20210;-77
2023/01/19 07:34:24;;;;;;;7.20;3.27;;;;;;;-145.69;100.00;52715.72;5075594;28;20199;-77
2023/01/19 07:36:50;;;;;;;8.67;2.87;;;;;;;-145.69;100.00;52729.56;5075543;28;20233;-78
2023/01/19 07:39:17;;;;;;;7.37;3.37;;;;;;;-145.69;100.00;52721.66;5075485;28;20199;-77
2023/01/19 07:41:43;;;;;;;6.80;3.07;;;;;;;-145.69;100.00;52751.34;5075219;28;20222;-77
2023/01/19 07:44:11;;;;;;;5.33;2.50;;;;;;;-145.69;100.00;52713.72;5075352;28;20230;-77
2023/01/19 07:46:38;;;;;;;6.50;3.17;;;;;;;-145.69;100.00;52717.69;5075214;28;20203;-77
2023/01/19 07:49:05;;;;;;;5.60;2.50;;;;;;;-145.69;100.00;52727.59;5075547;28;20202;-77
2023/01/19 07:51:31;;;;;;;8.23;2.53;;;;;;;-145.69;100.00;52733.53;5075313;28;20294;-76
2023/01/19 07:53:58;;;;;;;9.00;2.83;;;;;;;-145.69;100.00;52733.53;5075181;28;20195;-77
2023/01/19 07:56:26;;;;;;;6.87;3.03;;;;;;;-145.69;100.00;52709.78;5075520;28;20195;-76
2023/01/19 07:58:53;;;;;;;6.07;3.23;;;;;;;-145.69;100.00;52733.53;5075209;28;20214;-77
2023/01/19 08:01:20;;;;;;;4.10;2.37;;;;;;;-145.69;100.00;52705.81;5075120;28;20230;-76
2023/01/19 08:03:47;;;;;;;4.57;2.33;;;;;;;-145.69;100.00;52731.56;5064029;28;20195;-76
2023/01/19 08:06:20;;;;;;;7.97;3.13;;;;;;;-145.69;100.00;52713.72;5054721;28;20224;-77
2023/01/19 08:08:47;;;;;;;6.07;2.90;;;;;;;-145.69;100.00;52707.78;5055191;28;20203;-77
2023/01/19 08:11:14;;;;;;;7.00;3.53;;;;;;;-145.69;100.00;52727.59;5057743;28;20195;-77
2023/01/19 08:13:42;;;;;;;8.83;3.67;;;;;;;-145.69;100.00;52741.47;5074268;28;20195;-77
2023/01/19 08:16:09;;;;;;;9.20;3.57;;;;;;;-145.69;100.00;52743.44;5074833;28;20202;-76
2023/01/19 08:18:36;;;;;;;7.93;3.17;;;;;;;-145.69;100.00;52711.75;5074519;28;20212;-77
2023/01/19 08:21:03;;;;;;;8.97;4.17;;;;;;;-145.69;100.00;52745.41;5074927;28;20586;-76
2023/01/19 08:23:30;;;;;;;12.50;3.50;;;;;;;-145.69;100.00;52705.81;5074410;28;20554;-76
2023/01/19 08:25:59;;;;;;;12.23;3.33;;;;;;;-145.69;100.00;52745.41;5074799;28;20203;-77
2023/01/19 08:28:26;;;;;;;8.47;3.13;;;;;;;-145.69;100.00;52709.78;5074487;28;20203;-76
2023/01/19 08:30:54;;;;;;;8.07;3.67;;;;;;;-145.69;100.00;52731.56;5074522;28;20201;-77
2023/01/19 08:33:21;;;;;;;7.93;3.13;;;;;;;-145.69;100.00;52687.97;5074296;28;20550;-77
2023/01/19 08:35:51;;;;;;;8.43;3.10;;;;;;;-145.69;100.00;52703.81;5073939;28;20213;-77
2023/01/19 08:38:18;;;;;;;7.40;3.60;;;;;;;-145.69;100.00;52717.69;5074228;28;20210;-77
2023/01/19 08:40:45;;;;;;;7.90;3.60;;;;;;;-145.69;100.00;52707.78;5074426;28;20227;-76
2023/01/19 08:43:13;;;;;;;8.30;4.17;;;;;;;-145.69;100.00;52721.66;5072724;28;20589;-77
2023/01/19 08:45:46;;;;;;;7.67;3.63;;;;;;;-145.69;100.00;52711.75;5073706;28;20213;-76
2023/01/19 08:48:13;;;;;;;4.93;2.90;;;;;;;-145.69;100.00;52705.81;5074211;28;20230;-77
2023/01/19 08:50:40;;;;;;;5.80;2.87;;;;;;;-145.69;100.00;52703.81;5074305;28;20202;-77
2023/01/19 08:53:10;;;;;;;12.50;3.40;;;;;;;-145.69;100.00;52687.97;5073324;28;20195;-77
2023/01/19 08:55:37;;;;;;;9.40;2.90;;;;;;;-145.69;100.00;52741.47;5073844;28;20719;-76
2023/01/19 08:58:05;;;;;;;7.60;2.80;;;;;;;-145.69;100.00;52719.66;5073723;28;20202;-77
2023/01/19 09:00:33;;;;;;;6.53;2.97;;;;;;;-145.69;100.00;52709.78;5073353;28;20685;-76
2023/01/19 09:03:02;;;;;;;5.77;2.17;;;;;;;-145.69;100.00;52693.94;5071054;28;20210;-77
2023/01/19 09:05:30;;;;;;;4.27;2.13;;;;;;;-145.69;100.00;52733.53;5073907;28;20206;-76
2023/01/19 09:07:57;;;;;;;3.73;1.93;;;;;;;-145.69;100.00;52739.47;5073714;28;20202;-76
2023/01/19 09:10:25;;;;;;;3.37;2.13;;;;;;;-145.69;100.00;52717.69;5073340;28;20685;-76
2023/01/19 09:12:51;;;;;;;4.87;2.03;;;;;;;-145.69;100.00;52761.25;5072923;28;20195;-76
2023/01/19 09:15:18;;;;;;;4.20;1.80;;;;;;;-145.69;100.00;52707.78;5073640;28;20195;-76
2023/01/19 09:17:44;;;;;;;3.43;1.93;;;;;;;-145.69;100.00;52697.88;5073707;28;20210;-76
2023/01/19 09:20:12;;;;;;;4.50;1.90;;;;;;;-145.69;100.00;52729.56;5073045;28;20209;-76
2023/01/19 09:22:39;;;;;;;2.30;2.00;;;;;;;-145.69;100.00;52707.78;5072615;28;20649;-76
2023/01/19 09:25:07;;;;;;;4.70;1.83;;;;;;;-145.69;100.00;52707.78;5073605;28;20214;-76
2023/01/19 09:27:35;;;;;;;4.83;2.03;;;;;;;-145.69;100.00;52745.41;5073141;28;20205;-78
2023/01/19 09:30:01;;;;;;;3.27;1.90;;;;;;;-145.69;100.00;52715.72;5073402;28;20200;-77
2023/01/19 09:32:28;;;;;;;6.87;1.90;;;;;;;-145.69;100.00;52713.72;5072791;28;20210;-76
2023/01/19 09:34:55;;;;;;;3.07;1.80;;;;;;;-145.69;100.00;52693.94;5073405;28;20201;-75
2023/01/19 09:37:24;;;;;;;11.80;2.67;;;;;;;-145.69;100.00;52695.91;5073015;28;20547;-77
2023/01/19 09:39:50;;;;;;;3.73;1.90;;;;;;;-145.69;100.00;52697.88;5073122;28;20260;-78
2023/01/19 09:42:24;;;;;;;3.13;1.73;;;;;;;-145.69;100.00;52701.84;5072359;28;20309;-78
2023/01/19 09:44:53;;;;;;;3.03;1.37;;;;;;;-145.69;100.00;52676.09;5073139;28;20226;-77
2023/01/19 09:47:23;;;;;;;5.10;1.90;;;;;;;-145.69;100.00;52678.09;5072436;28;20201;-78
2023/01/19 09:49:57;;;;;;;4.63;1.90;;;;;;;-145.69;100.00;52693.94;5073286;28;20195;-77
2023/01/19 09:52:23;;;;;;;2.97;1.90;;;;;;;-145.69;100.00;52670.16;5072825;28;20657;-77
2023/01/19 09:54:54;;;;;;;10.40;2.17;;;;;;;-145.69;100.00;52697.88;5073143;28;20202;-78
2023/01/19 09:57:21;;;;;;;4.10;1.80;;;;;;;-145.69;100.00;52670.16;5072503;28;20202;-78
2023/01/19 09:59:50;;;;;;;7.23;3.17;;;;;;;-145.69;100.00;52695.91;5072999;28;20216;-78
2023/01/19 10:02:33;;;;;;;7.87;2.80;;;;;;;-145.69;100.00;52670.16;5072314;28;20227;-79
2023/01/19 10:05:01;;;;;;;3.47;2.20;;;;;;;-145.69;100.00;52678.09;5051939;28;20199;-80
2023/01/19 10:07:54;;;;;;;5.80;2.90;;;;;;;-145.69;100.00;52682.03;5052912;28;20203;-78
2023/01/19 10:10:22;;;;;;;4.10;2.70;;;;;;;-145.69;100.00;52672.13;5053783;28;20207;-78
2023/01/19 10:13:00;;;;;;;4.67;2.53;;;;;;;-145.69;100.00;52686.00;5071963;28;20199;-78
2023/01/19 10:15:44;;;;;;;6.27;2.20;;;;;;;-145.69;100.00;52668.19;5072522;28;20198;-80
2023/01/19 10:18:18;;;;;;;5.17;2.70;;;;;;;-145.69;100.00;52678.09;5072889;28;20304;-80
2023/01/19 10:20:52;;;;;;;4.20;2.87;;;;;;;-145.69;100.00;52674.13;5072837;28;20218;-79
2023/01/19 10:23:38;;;;;;;3.73;1.97;;;;;;;-145.69;100.00;52709.78;5072678;28;20222;-79
2023/01/19 10:26:09;;;;;;;4.20;2.23;;;;;;;-145.69;100.00;52693.94;5072246;28;20202;-79
2023/01/19 10:28:39;;;;;;;4.60;2.27;;;;;;;-145.69;100.00;52703.81;5072267;28;20203;-78
2023/01/19 10:31:08;;;;;;;18.00;8.53;;;;;;;-145.69;100.00;52711.75;5072461;28;20209;-80
2023/01/19 10:33:38;;;;;;;92.57;38.03;;;;;;;-145.69;100.00;52644.41;5072132;28;20187;-77
2023/01/19 10:36:16;;;;;;;74.80;34.50;;;;;;;-145.69;100.00;52638.47;5072454;28;20198;-80
2023/01/19 10:38:43;;;;;;;40.00;19.53;;;;;;;-145.69;100.00;52634.50;5073352;28;20198;-81
2023/01/19 10:41:18;;;;;;;7.57;3.53;;;;;;;-145.69;100.00;52674.13;5072586;28;20588;-81
2023/01/19 10:43:46;;;;;;;4.77;2.90;;;;;;;-145.69;100.00;52658.28;5071899;28;20738;-78
2023/01/19 10:46:24;;;;;;;5.73;2.93;;;;;;;-145.69;100.00;52662.22;5072098;28;20582;-77
2023/01/19 10:48:53;;;;;;;7.57;2.87;;;;;;;-145.69;100.00;52672.13;5072544;28;20244;-78
2023/01/19 10:51:20;;;;;;;8.10;2.77;;;;;;;-145.69;100.00;52666.19;5072465;28;20199;-81
2023/01/19 10:54:01;;;;;;;9.13;3.13;;;;;;;-145.69;100.00;52672.13;5072419;28;20687;-80
2023/01/19 10:56:32;;;;;;;7.53;4.30;;;;;;;-145.69;100.00;52682.03;5072619;28;20237;-81
2023/01/19 10:59:00;;;;;;;11.03;6.30;;;;;;;-145.69;100.00;52654.31;5072906;28;20228;-79
2023/01/19 11:01:29;;;;;;;8.00;4.50;;;;;;;-145.69;100.00;52624.59;5071839;28;20750;-79
2023/01/19 11:04:04;;;;;;;6.00;2.00;;;;;;;-145.69;98.04;52682.03;5072437;28;20207;-83
2023/01/19 11:06:32;;;;;;;3.80;2.47;;;;;;;-145.69;100.00;52668.19;5074394;28;20198;-83
2023/01/19 11:09:17;;;;;;;6.97;2.67;;;;;;;-145.69;97.03;52664.22;5072629;28;20657;-83
2023/01/19 11:11:49;;;;;;;4.90;2.60;;;;;;;-145.69;100.00;52670.16;5073372;28;20198;-80
2023/01/19 11:14:20;;;;;;;13.23;5.00;;;;;;;-145.69;100.00;52650.34;5074528;28;20285;-86
2023/01/19 11:16:53;;;;;;;8.63;3.30;;;;;;;-145.69;100.00;52624.59;5077224;28;20195;-84
2023/01/19 11:19:26;;;;;;;5.47;2.83;;;;;;;-145.69;100.00;52672.13;5078063;28;20206;-84
2023/01/19 11:22:10;;;;;;;6.97;3.10;;;;;;;-145.69;97.91;52668.19;5079097;28;20238;-85
2023/01/19 11:24:38;;;;;;;4.80;2.43;;;;;;;-145.69;100.00;52682.03;5077764;28;20195;-84